LGL69 ELLX-LEVC
Flight info
| Callsign | LGL69 |
|---|---|
| Flight time | N/A |
| Altitude | 23000 |
| Route | GTQ A242 POGOL DCT LASAT DCT MOROK DCT GILIR DCT GEVEA DCT INCUS DCT BALSI DCT RETNO DCT TUPOX DCT MTG DCT DIVKO DCT NILDU DCT NENDA DCT BCN DCT RODRA DCT PEXOT DCT EBROX DCT LOTOS DCT TORDU M985 SOPET |
| Aircraft | DH8D/M-SDE2E3FGRY/H |
Departure
| Time | 2026-04-30 19:58 |
|---|---|
| Airport | Luxembourg-Findel International Airport (ELLX) |
Arrival
| Time | N/A |
|---|---|
| Airport | Valencia Airport (LEVC) |
| Time | Latitude | Longitude | Altitude | Speed | Heading |
|---|---|---|---|---|---|
| 2026-04-30 19:32 | 49.63155 | 6.21386 | 1235 ft | 0 kts | 60° |
| 2026-04-30 19:46 | 49.63155 | 6.21387 | 1235 ft | 0 kts | 60° |
| 2026-04-30 19:46 | 49.63154 | 6.21385 | 1235 ft | 1 kts | 60° |
| 2026-04-30 19:46 | 49.63147 | 6.21365 | 1235 ft | 2 kts | 60° |
| 2026-04-30 19:47 | 49.63139 | 6.21345 | 1236 ft | 2 kts | 70° |
| 2026-04-30 19:47 | 49.63138 | 6.21330 | 1236 ft | 2 kts | 98° |
| 2026-04-30 19:47 | 49.63147 | 6.21306 | 1236 ft | 1 kts | 147° |
| 2026-04-30 19:47 | 49.63151 | 6.21303 | 1236 ft | 0 kts | 150° |
| 2026-04-30 19:51 | 49.63147 | 6.21306 | 1236 ft | 1 kts | 150° |
| 2026-04-30 19:52 | 49.63127 | 6.21323 | 1236 ft | 4 kts | 150° |
| 2026-04-30 19:52 | 49.63082 | 6.21333 | 1235 ft | 10 kts | 171° |
| 2026-04-30 19:52 | 49.62989 | 6.21348 | 1235 ft | 10 kts | 186° |
| 2026-04-30 19:52 | 49.62971 | 6.21322 | 1235 ft | 10 kts | 245° |
| 2026-04-30 19:53 | 49.62917 | 6.21119 | 1237 ft | 24 kts | 242° |
| 2026-04-30 19:53 | 49.62837 | 6.20870 | 1239 ft | 27 kts | 243° |
| 2026-04-30 19:53 | 49.62711 | 6.20635 | 1238 ft | 29 kts | 215° |
| 2026-04-30 19:53 | 49.62568 | 6.20413 | 1232 ft | 28 kts | 229° |
| 2026-04-30 19:54 | 49.62456 | 6.20169 | 1223 ft | 28 kts | 239° |
| 2026-04-30 19:54 | 49.62353 | 6.19907 | 1212 ft | 28 kts | 241° |
| 2026-04-30 19:54 | 49.62260 | 6.19643 | 1201 ft | 28 kts | 239° |
| 2026-04-30 19:54 | 49.62162 | 6.19380 | 1193 ft | 28 kts | 238° |
| 2026-04-30 19:55 | 49.62063 | 6.19116 | 1181 ft | 28 kts | 239° |
| 2026-04-30 19:55 | 49.61969 | 6.18871 | 1171 ft | 23 kts | 239° |
| 2026-04-30 19:55 | 49.61895 | 6.18750 | 1166 ft | 0 kts | 215° |
| 2026-04-30 19:56 | 49.61890 | 6.18744 | 1165 ft | 2 kts | 213° |
| 2026-04-30 19:56 | 49.61861 | 6.18721 | 1164 ft | 6 kts | 196° |
| 2026-04-30 19:56 | 49.61808 | 6.18727 | 1163 ft | 9 kts | 156° |
| 2026-04-30 19:57 | 49.61777 | 6.18811 | 1165 ft | 11 kts | 68° |
| 2026-04-30 19:57 | 49.61854 | 6.19028 | 1175 ft | 56 kts | 60° |
| 2026-04-30 19:57 | 49.62191 | 6.19935 | 1211 ft | 131 kts | 59° |
| 2026-04-30 19:57 | 49.62722 | 6.21345 | 1347 ft | 164 kts | 59° |
| 2026-04-30 19:58 | 49.63324 | 6.22879 | 1761 ft | 179 kts | 62° |
| 2026-04-30 19:58 | 49.63933 | 6.24658 | 2281 ft | 184 kts | 65° |
| 2026-04-30 19:58 | 49.64473 | 6.26230 | 3296 ft | 161 kts | 75° |
| 2026-04-30 19:58 | 49.64447 | 6.27792 | 3863 ft | 154 kts | 120° |
| 2026-04-30 19:59 | 49.63726 | 6.29086 | 4367 ft | 163 kts | 131° |
| 2026-04-30 19:59 | 49.62933 | 6.30331 | 4971 ft | 166 kts | 131° |
| 2026-04-30 19:59 | 49.61265 | 6.32874 | 6116 ft | 175 kts | 133° |
| 2026-04-30 20:00 | 49.60395 | 6.34188 | 6695 ft | 178 kts | 133° |
| 2026-04-30 20:00 | 49.59507 | 6.35522 | 7292 ft | 180 kts | 134° |
| 2026-04-30 20:00 | 49.58611 | 6.36866 | 7838 ft | 185 kts | 133° |
| 2026-04-30 20:00 | 49.57687 | 6.38245 | 8418 ft | 187 kts | 133° |
| 2026-04-30 20:01 | 49.55749 | 6.40939 | 9521 ft | 195 kts | 146° |
| 2026-04-30 20:01 | 49.54516 | 6.41861 | 10040 ft | 199 kts | 152° |
| 2026-04-30 20:01 | 49.53257 | 6.42715 | 10597 ft | 201 kts | 152° |
| 2026-04-30 20:02 | 49.50681 | 6.44475 | 11651 ft | 205 kts | 152° |
| 2026-04-30 20:02 | 49.49383 | 6.45368 | 12148 ft | 208 kts | 152° |
| 2026-04-30 20:03 | 49.46735 | 6.47194 | 13103 ft | 212 kts | 152° |
| 2026-04-30 20:03 | 49.45372 | 6.48136 | 13567 ft | 214 kts | 152° |
| 2026-04-30 20:03 | 49.44008 | 6.49080 | 14006 ft | 216 kts | 152° |
| 2026-04-30 20:03 | 49.42645 | 6.50023 | 14451 ft | 217 kts | 152° |
| 2026-04-30 20:04 | 49.41265 | 6.50978 | 14858 ft | 219 kts | 151° |
| 2026-04-30 20:04 | 49.39874 | 6.51939 | 15285 ft | 220 kts | 151° |
| 2026-04-30 20:04 | 49.38472 | 6.52908 | 15696 ft | 222 kts | 151° |
| 2026-04-30 20:05 | 49.35669 | 6.54843 | 16488 ft | 224 kts | 151° |
| 2026-04-30 20:05 | 49.34246 | 6.55825 | 16867 ft | 225 kts | 150° |
| 2026-04-30 20:05 | 49.31372 | 6.57806 | 17579 ft | 228 kts | 150° |
| 2026-04-30 20:06 | 49.29924 | 6.58804 | 17912 ft | 230 kts | 150° |
| 2026-04-30 20:06 | 49.28461 | 6.59811 | 18243 ft | 231 kts | 150° |
| 2026-04-30 20:06 | 49.26991 | 6.60822 | 18560 ft | 233 kts | 150° |
| 2026-04-30 20:06 | 49.25524 | 6.61831 | 18857 ft | 235 kts | 150° |
| 2026-04-30 20:07 | 49.24026 | 6.62860 | 19172 ft | 235 kts | 151° |
| 2026-04-30 20:07 | 49.22489 | 6.63667 | 19472 ft | 240 kts | 161° |
| 2026-04-30 20:07 | 49.19182 | 6.64744 | 20057 ft | 243 kts | 162° |
| 2026-04-30 20:08 | 49.17520 | 6.65277 | 20327 ft | 244 kts | 163° |
| 2026-04-30 20:08 | 49.15854 | 6.65815 | 20586 ft | 245 kts | 163° |
| 2026-04-30 20:08 | 49.14201 | 6.66350 | 20838 ft | 247 kts | 163° |
| 2026-04-30 20:08 | 49.12524 | 6.66895 | 21110 ft | 247 kts | 163° |
| 2026-04-30 20:09 | 49.10811 | 6.67453 | 21356 ft | 249 kts | 163° |
| 2026-04-30 20:09 | 49.09120 | 6.68005 | 21598 ft | 250 kts | 163° |
| 2026-04-30 20:09 | 49.06254 | 6.68939 | 21974 ft | 251 kts | 163° |
| 2026-04-30 20:10 | 49.03156 | 6.69949 | 22377 ft | 253 kts | 163° |
| 2026-04-30 20:10 | 49.01419 | 6.70516 | 22569 ft | 254 kts | 163° |
| 2026-04-30 20:10 | 48.99688 | 6.71081 | 22762 ft | 255 kts | 163° |
| 2026-04-30 20:11 | 48.96114 | 6.71408 | 23135 ft | 263 kts | 178° |
| 2026-04-30 20:11 | 48.94284 | 6.71318 | 23311 ft | 264 kts | 178° |
| 2026-04-30 20:11 | 48.92781 | 6.71245 | 23491 ft | 263 kts | 178° |
| 2026-04-30 20:12 | 48.89137 | 6.71080 | 23820 ft | 265 kts | 178° |
| 2026-04-30 20:12 | 48.87283 | 6.71001 | 23988 ft | 266 kts | 177° |
| 2026-04-30 20:12 | 48.85450 | 6.70925 | 24149 ft | 266 kts | 178° |
| 2026-04-30 20:13 | 48.83774 | 6.70856 | 24216 ft | 270 kts | 177° |
| 2026-04-30 20:13 | 48.81867 | 6.70781 | 24244 ft | 276 kts | 177° |
| 2026-04-30 20:13 | 48.80096 | 6.70711 | 24253 ft | 282 kts | 178° |
| 2026-04-30 20:13 | 48.78357 | 6.70643 | 24253 ft | 287 kts | 178° |
| 2026-04-30 20:14 | 48.76313 | 6.70561 | 24255 ft | 293 kts | 178° |
| 2026-04-30 20:14 | 48.74269 | 6.70480 | 24258 ft | 300 kts | 178° |
| 2026-04-30 20:14 | 48.72272 | 6.70399 | 24261 ft | 305 kts | 178° |
| 2026-04-30 20:14 | 48.70139 | 6.70311 | 24259 ft | 310 kts | 178° |
| 2026-04-30 20:15 | 48.68253 | 6.70235 | 24260 ft | 314 kts | 178° |
| 2026-04-30 20:15 | 48.66025 | 6.70147 | 24257 ft | 320 kts | 178° |
| 2026-04-30 20:15 | 48.63759 | 6.70056 | 24257 ft | 325 kts | 178° |
| 2026-04-30 20:15 | 48.61500 | 6.69964 | 24260 ft | 329 kts | 178° |
| 2026-04-30 20:16 | 48.59192 | 6.69883 | 24260 ft | 333 kts | 176° |
| 2026-04-30 20:16 | 48.56863 | 6.69885 | 24259 ft | 335 kts | 174° |
| 2026-04-30 20:16 | 48.54528 | 6.69881 | 24261 ft | 337 kts | 176° |
| 2026-04-30 20:16 | 48.52166 | 6.69788 | 24259 ft | 341 kts | 178° |
| 2026-04-30 20:17 | 48.49780 | 6.69671 | 24259 ft | 343 kts | 178° |
| 2026-04-30 20:17 | 48.47406 | 6.69562 | 24256 ft | 345 kts | 178° |
| 2026-04-30 20:17 | 48.44991 | 6.69459 | 24251 ft | 346 kts | 178° |
| 2026-04-30 20:17 | 48.42583 | 6.69386 | 24248 ft | 347 kts | 177° |
| 2026-04-30 20:18 | 48.40126 | 6.69313 | 24245 ft | 348 kts | 177° |
| 2026-04-30 20:18 | 48.37708 | 6.69231 | 24247 ft | 349 kts | 178° |
| 2026-04-30 20:18 | 48.35264 | 6.69146 | 24249 ft | 350 kts | 178° |
| 2026-04-30 20:18 | 48.32809 | 6.69061 | 24247 ft | 350 kts | 177° |
| 2026-04-30 20:19 | 48.30377 | 6.68973 | 24244 ft | 351 kts | 178° |
| 2026-04-30 20:19 | 48.28766 | 6.68915 | 24242 ft | 351 kts | 177° |
| 2026-04-30 20:19 | 48.25462 | 6.68794 | 24247 ft | 351 kts | 178° |
| 2026-04-30 20:19 | 48.23042 | 6.68704 | 24245 ft | 352 kts | 178° |
| 2026-04-30 20:20 | 48.20564 | 6.68611 | 24241 ft | 352 kts | 178° |
| 2026-04-30 20:20 | 48.18086 | 6.68518 | 24238 ft | 352 kts | 178° |
| 2026-04-30 20:20 | 48.15623 | 6.68425 | 24234 ft | 353 kts | 178° |
| 2026-04-30 20:20 | 48.13185 | 6.68333 | 24235 ft | 352 kts | 178° |
| 2026-04-30 20:21 | 48.10715 | 6.68239 | 24238 ft | 352 kts | 178° |
| 2026-04-30 20:21 | 48.08293 | 6.68147 | 24236 ft | 352 kts | 178° |
| 2026-04-30 20:21 | 48.05844 | 6.68052 | 24237 ft | 352 kts | 178° |
| 2026-04-30 20:21 | 48.03375 | 6.67959 | 24235 ft | 353 kts | 178° |
| 2026-04-30 20:22 | 48.00927 | 6.67867 | 24234 ft | 353 kts | 178° |
| 2026-04-30 20:22 | 47.98469 | 6.67774 | 24233 ft | 353 kts | 178° |
| 2026-04-30 20:22 | 47.95989 | 6.67681 | 24231 ft | 353 kts | 178° |
| 2026-04-30 20:22 | 47.93572 | 6.67590 | 24228 ft | 353 kts | 178° |
| 2026-04-30 20:23 | 47.91111 | 6.67497 | 24228 ft | 353 kts | 178° |
| 2026-04-30 20:23 | 47.88660 | 6.67405 | 24228 ft | 351 kts | 178° |
| 2026-04-30 20:23 | 47.86214 | 6.67313 | 24232 ft | 351 kts | 178° |
| 2026-04-30 20:23 | 47.84084 | 6.67233 | 24233 ft | 352 kts | 178° |
| 2026-04-30 20:24 | 47.81640 | 6.67141 | 24230 ft | 352 kts | 178° |
| 2026-04-30 20:24 | 47.79447 | 6.67054 | 24228 ft | 351 kts | 178° |
| 2026-04-30 20:24 | 47.77005 | 6.66962 | 24226 ft | 351 kts | 178° |
| 2026-04-30 20:24 | 47.74537 | 6.66871 | 24225 ft | 351 kts | 178° |
| 2026-04-30 20:25 | 47.69813 | 6.66695 | 24225 ft | 352 kts | 178° |
| 2026-04-30 20:25 | 47.67858 | 6.66622 | 24222 ft | 351 kts | 178° |
| 2026-04-30 20:26 | 47.62965 | 6.66434 | 24221 ft | 351 kts | 178° |
| 2026-04-30 20:26 | 47.58049 | 6.66240 | 24214 ft | 352 kts | 178° |
| 2026-04-30 20:26 | 47.55609 | 6.66148 | 24213 ft | 352 kts | 178° |
| 2026-04-30 20:27 | 47.50697 | 6.65969 | 24210 ft | 352 kts | 178° |
| 2026-04-30 20:27 | 47.45778 | 6.65781 | 24223 ft | 352 kts | 178° |
| 2026-04-30 20:28 | 47.40871 | 6.65480 | 24196 ft | 356 kts | 186° |
| 2026-04-30 20:28 | 47.36616 | 6.61780 | 24211 ft | 362 kts | 218° |
| 2026-04-30 20:29 | 47.32786 | 6.56949 | 24209 ft | 363 kts | 219° |
| 2026-04-30 20:30 | 47.27034 | 6.49708 | 24207 ft | 363 kts | 218° |
| 2026-04-30 20:30 | 47.21256 | 6.42473 | 24213 ft | 363 kts | 218° |
| 2026-04-30 20:31 | 47.15468 | 6.35261 | 24208 ft | 363 kts | 218° |
| 2026-04-30 20:32 | 47.09751 | 6.28165 | 24204 ft | 362 kts | 217° |
| 2026-04-30 20:32 | 47.05712 | 6.24040 | 24180 ft | 352 kts | 194° |
| 2026-04-30 20:33 | 47.03319 | 6.23424 | 24203 ft | 349 kts | 183° |
| 2026-04-30 20:33 | 46.98506 | 6.22615 | 24204 ft | 349 kts | 183° |
| 2026-04-30 20:33 | 46.96077 | 6.22218 | 24205 ft | 349 kts | 183° |
| 2026-04-30 20:34 | 46.91236 | 6.21428 | 24204 ft | 349 kts | 183° |
| 2026-04-30 20:34 | 46.86389 | 6.20631 | 24207 ft | 349 kts | 183° |
| 2026-04-30 20:35 | 46.83983 | 6.20236 | 24212 ft | 349 kts | 183° |
| 2026-04-30 20:35 | 46.81541 | 6.19836 | 24212 ft | 349 kts | 183° |
| 2026-04-30 20:35 | 46.77737 | 6.19214 | 24214 ft | 348 kts | 183° |
| 2026-04-30 20:36 | 46.75303 | 6.18817 | 24218 ft | 347 kts | 183° |
| 2026-04-30 20:36 | 46.72888 | 6.18423 | 24221 ft | 348 kts | 183° |
| 2026-04-30 20:36 | 46.68210 | 6.17664 | 24220 ft | 348 kts | 183° |
| 2026-04-30 20:37 | 46.65797 | 6.17270 | 24217 ft | 348 kts | 183° |
| 2026-04-30 20:37 | 46.63938 | 6.16967 | 24217 ft | 348 kts | 184° |
| 2026-04-30 20:37 | 46.61443 | 6.16561 | 24215 ft | 346 kts | 184° |
| 2026-04-30 20:37 | 46.59312 | 6.16214 | 24220 ft | 343 kts | 183° |
| 2026-04-30 20:38 | 46.57317 | 6.15891 | 24217 ft | 339 kts | 183° |
| 2026-04-30 20:38 | 46.54771 | 6.15478 | 24217 ft | 337 kts | 183° |
| 2026-04-30 20:38 | 46.52412 | 6.15097 | 24224 ft | 339 kts | 183° |
| 2026-04-30 20:39 | 46.47716 | 6.14342 | 24222 ft | 342 kts | 183° |
| 2026-04-30 20:39 | 46.45324 | 6.13957 | 24215 ft | 343 kts | 183° |
| 2026-04-30 20:39 | 46.42968 | 6.13576 | 24212 ft | 344 kts | 184° |
| 2026-04-30 20:40 | 46.38170 | 6.12800 | 24210 ft | 345 kts | 184° |
| 2026-04-30 20:40 | 46.35798 | 6.12419 | 24209 ft | 345 kts | 184° |
| 2026-04-30 20:40 | 46.33413 | 6.12037 | 24207 ft | 345 kts | 184° |
| 2026-04-30 20:41 | 46.28618 | 6.11263 | 24212 ft | 346 kts | 184° |
| 2026-04-30 20:41 | 46.26214 | 6.10875 | 24213 ft | 346 kts | 184° |
| 2026-04-30 20:41 | 46.23816 | 6.10493 | 24211 ft | 346 kts | 184° |
| 2026-04-30 20:41 | 46.21420 | 6.10110 | 24211 ft | 346 kts | 184° |